createdAt,value
2022-10-30T00:01:26.680Z,35.70
2022-10-30T00:03:55.249Z,37.40
2022-10-30T00:06:24.424Z,37.10
2022-10-30T00:08:52.929Z,38.60
2022-10-30T00:11:21.380Z,45.00
2022-10-30T00:13:50.293Z,38.90
2022-10-30T00:16:21.162Z,42.00
2022-10-30T00:18:49.949Z,35.80
2022-10-30T00:21:20.297Z,31.70
2022-10-30T00:23:49.972Z,34.40
2022-10-30T00:26:19.967Z,31.20
2022-10-30T00:28:50.743Z,36.90
2022-10-30T00:31:20.028Z,34.40
2022-10-30T00:33:51.463Z,30.20
2022-10-30T00:36:20.344Z,33.10
2022-10-30T00:38:48.919Z,29.10
2022-10-30T00:41:19.451Z,29.70
2022-10-30T00:43:48.204Z,31.60
2022-10-30T00:46:20.318Z,38.20
2022-10-30T00:48:52.679Z,31.60
2022-10-30T00:51:21.785Z,32.10
2022-10-30T00:53:50.815Z,30.20
2022-10-30T00:56:20.785Z,30.10
2022-10-30T00:58:56.898Z,30.90
2022-10-30T01:01:28.977Z,27.30
2022-10-30T01:04:00.434Z,25.40
2022-10-30T01:06:30.918Z,88.90
2022-10-30T01:09:00.413Z,43.90
2022-10-30T01:11:31.346Z,34.90
2022-10-30T01:14:03.149Z,30.00
2022-10-30T01:16:44.091Z,25.00
2022-10-30T01:19:20.480Z,25.60
2022-10-30T01:21:57.166Z,27.80
2022-10-30T01:24:42.610Z,28.40
2022-10-30T01:27:25.929Z,27.80
2022-10-30T01:30:00.257Z,26.70
2022-10-30T01:32:42.186Z,24.70
2022-10-30T01:35:16.463Z,26.30
2022-10-30T01:37:50.739Z,24.90
2022-10-30T01:40:20.698Z,33.20
2022-10-30T01:42:53.274Z,25.40
2022-10-30T01:45:32.651Z,26.80
2022-10-30T01:48:25.163Z,26.80
2022-10-30T01:50:59.385Z,28.40
2022-10-30T01:53:40.297Z,26.80
2022-10-30T01:56:18.108Z,22.90
2022-10-30T01:58:50.747Z,23.40
2022-10-30T02:01:19.652Z,28.40
2022-10-30T02:03:48.682Z,27.80
2022-10-30T02:06:17.662Z,23.80
2022-10-30T02:08:46.188Z,28.40
2022-10-30T02:11:15.838Z,32.50
2022-10-30T02:13:44.672Z,28.60
2022-10-30T02:16:13.551Z,23.10
2022-10-30T02:18:42.369Z,25.70
2022-10-30T02:21:10.972Z,24.20
2022-10-30T02:23:40.705Z,22.90
2022-10-30T02:26:09.089Z,27.60
2022-10-30T02:28:37.561Z,20.10
2022-10-30T02:31:07.118Z,22.50
2022-10-30T02:33:35.547Z,26.00
2022-10-30T02:36:05.037Z,24.60
2022-10-30T02:38:33.787Z,22.80
2022-10-30T02:41:02.313Z,28.60
2022-10-30T02:43:30.840Z,28.00
2022-10-30T02:46:00.063Z,31.30
2022-10-30T02:48:28.357Z,20.90
2022-10-30T02:51:05.497Z,27.10
2022-10-30T02:53:34.288Z,26.20
2022-10-30T02:56:06.017Z,30.20
2022-10-30T02:58:35.104Z,28.30
2022-10-30T03:01:08.161Z,22.80
2022-10-30T03:03:37.556Z,24.60
2022-10-30T03:06:08.194Z,29.70
2022-10-30T03:08:37.106Z,30.90
2022-10-30T03:11:07.897Z,28.20
2022-10-30T03:13:37.241Z,30.80
2022-10-30T03:16:09.141Z,31.00
2022-10-30T03:18:37.696Z,26.30
2022-10-30T03:21:08.445Z,27.10
2022-10-30T03:23:38.177Z,29.40
2022-10-30T03:26:07.442Z,33.70
2022-10-30T03:28:36.253Z,26.90
2022-10-30T03:31:07.229Z,29.60
2022-10-30T03:33:36.589Z,32.60
2022-10-30T03:36:08.840Z,36.10
2022-10-30T03:38:37.765Z,31.90
2022-10-30T03:41:07.020Z,29.20
2022-10-30T03:43:35.515Z,30.10
2022-10-30T03:46:05.875Z,30.00
2022-10-30T03:48:34.295Z,30.10
2022-10-30T03:51:02.833Z,30.20
2022-10-30T03:53:31.304Z,28.30
2022-10-30T03:56:01.286Z,31.10
2022-10-30T03:58:30.410Z,32.60
2022-10-30T04:01:02.184Z,30.50
2022-10-30T04:03:30.793Z,35.20
2022-10-30T04:05:59.474Z,30.10
2022-10-30T04:08:28.231Z,33.30
2022-10-30T04:10:56.642Z,28.30
2022-10-30T04:13:25.469Z,28.40
2022-10-30T04:15:57.983Z,39.20
2022-10-30T04:18:28.732Z,28.70
2022-10-30T04:20:59.879Z,27.50
2022-10-30T04:23:28.357Z,26.00
2022-10-30T04:25:56.978Z,25.90
2022-10-30T04:28:25.638Z,26.10
2022-10-30T04:30:54.127Z,27.00
2022-10-30T04:33:22.664Z,35.10
2022-10-30T04:35:51.364Z,27.60
2022-10-30T04:38:19.923Z,29.50
2022-10-30T04:40:48.571Z,25.90
2022-10-30T04:43:17.462Z,25.50
2022-10-30T04:45:45.828Z,30.60
2022-10-30T04:48:15.894Z,27.80
2022-10-30T04:50:45.018Z,28.20
2022-10-30T04:53:14.672Z,26.30
2022-10-30T04:55:43.985Z,33.60
2022-10-30T04:58:13.221Z,30.70
2022-10-30T05:00:41.886Z,29.80
2022-10-30T05:03:15.319Z,29.70
2022-10-30T05:05:44.052Z,25.80
2022-10-30T05:08:12.438Z,35.10
2022-10-30T05:10:41.549Z,30.60
2022-10-30T05:13:11.853Z,39.70
2022-10-30T05:15:40.257Z,31.90
2022-10-30T05:18:08.763Z,38.90
2022-10-30T05:20:38.431Z,34.70
2022-10-30T05:23:12.017Z,33.90
2022-10-30T05:25:41.097Z,36.00
2022-10-30T05:28:10.440Z,42.40
2022-10-30T05:30:38.860Z,41.50
2022-10-30T05:33:10.499Z,33.00
2022-10-30T05:35:39.365Z,33.30
2022-10-30T05:38:08.519Z,35.20
2022-10-30T05:40:37.289Z,32.20
2022-10-30T05:43:05.939Z,33.80
2022-10-30T05:45:34.768Z,32.30
2022-10-30T05:48:05.249Z,33.30
2022-10-30T05:50:34.297Z,33.10
2022-10-30T05:53:04.209Z,33.10
2022-10-30T05:55:33.003Z,27.90
2022-10-30T05:58:02.904Z,35.10
2022-10-30T06:00:33.513Z,28.80
2022-10-30T06:03:03.449Z,31.90
2022-10-30T06:05:33.691Z,31.40
2022-10-30T06:08:02.668Z,31.50
2022-10-30T06:10:31.260Z,29.30
2022-10-30T06:13:01.236Z,27.10
2022-10-30T06:15:30.886Z,38.40
2022-10-30T06:17:59.937Z,31.50
2022-10-30T06:20:29.896Z,29.00
2022-10-30T06:22:59.277Z,35.00
2022-10-30T06:25:28.740Z,28.10
2022-10-30T06:27:58.874Z,33.60
2022-10-30T06:30:28.029Z,31.30
2022-10-30T06:33:00.447Z,23.60
2022-10-30T06:35:29.596Z,28.10
2022-10-30T06:37:59.615Z,24.80
2022-10-30T06:40:29.418Z,27.40
2022-10-30T06:42:58.317Z,24.30
2022-10-30T06:45:26.909Z,27.60
2022-10-30T06:47:55.619Z,22.80
2022-10-30T06:50:24.415Z,27.00
2022-10-30T06:52:55.060Z,27.10
2022-10-30T06:55:23.679Z,31.30
2022-10-30T06:57:55.928Z,25.20
2022-10-30T07:00:25.206Z,32.90
2022-10-30T07:02:58.466Z,26.40
2022-10-30T07:05:27.399Z,24.90
2022-10-30T07:07:57.990Z,22.40
2022-10-30T07:10:26.448Z,22.10
2022-10-30T07:12:56.525Z,20.90
2022-10-30T07:15:26.200Z,21.90
2022-10-30T07:17:56.367Z,17.70
2022-10-30T07:20:26.014Z,22.60
2022-10-30T07:22:54.510Z,16.00
2022-10-30T07:25:23.216Z,17.70
2022-10-30T07:27:52.920Z,27.40
2022-10-30T07:30:23.156Z,20.40
2022-10-30T07:32:59.157Z,21.30
2022-10-30T07:35:28.689Z,22.40
2022-10-30T07:38:00.228Z,19.90
2022-10-30T07:40:29.143Z,20.40
2022-10-30T07:42:58.810Z,21.30
2022-10-30T07:45:27.852Z,22.00
2022-10-30T07:47:57.096Z,29.50
2022-10-30T07:50:26.854Z,25.90
2022-10-30T07:52:55.946Z,22.40
2022-10-30T07:55:25.001Z,23.70
2022-10-30T07:57:53.543Z,20.30
2022-10-30T08:00:22.575Z,27.80
2022-10-30T08:02:52.513Z,25.50
2022-10-30T08:05:24.351Z,24.50
2022-10-30T08:07:58.234Z,22.90
2022-10-30T08:10:27.154Z,23.90
2022-10-30T08:12:55.660Z,34.00
2022-10-30T08:15:26.314Z,32.70
2022-10-30T08:17:54.877Z,32.00
2022-10-30T08:20:26.209Z,30.50
2022-10-30T08:22:57.103Z,30.30
2022-10-30T08:25:28.253Z,22.40
2022-10-30T08:27:59.902Z,28.90
2022-10-30T08:30:30.103Z,29.10
2022-10-30T08:32:59.835Z,28.80
2022-10-30T08:35:29.474Z,28.00
2022-10-30T08:37:59.161Z,26.00
2022-10-30T08:40:28.435Z,22.10
2022-10-30T08:42:58.742Z,28.40
2022-10-30T08:45:30.885Z,30.50
2022-10-30T08:48:01.831Z,22.70
2022-10-30T08:50:32.087Z,21.40
2022-10-30T08:53:03.324Z,21.80
2022-10-30T08:55:33.160Z,25.30
2022-10-30T08:58:02.812Z,22.30
2022-10-30T09:00:31.729Z,22.70
2022-10-30T09:03:01.179Z,24.70
2022-10-30T09:05:31.106Z,24.10
2022-10-30T09:08:01.604Z,26.10
2022-10-30T09:10:31.773Z,20.40
2022-10-30T09:13:01.872Z,20.50
2022-10-30T09:15:30.985Z,20.70
2022-10-30T09:18:00.590Z,22.70
2022-10-30T09:20:30.409Z,22.70
2022-10-30T09:22:59.307Z,19.00
2022-10-30T09:25:28.357Z,23.10
2022-10-30T09:27:57.246Z,23.90
2022-10-30T09:30:27.332Z,19.60
2022-10-30T09:32:58.491Z,26.30
2022-10-30T09:35:27.974Z,19.70
2022-10-30T09:37:58.107Z,25.10
2022-10-30T09:40:37.886Z,20.20
2022-10-30T09:43:10.957Z,17.90
2022-10-30T09:46:20.143Z,18.60
2022-10-30T09:49:14.701Z,13.70
2022-10-30T09:51:55.394Z,14.60
2022-10-30T09:54:34.891Z,15.10
2022-10-30T09:57:07.399Z,11.40
2022-10-30T09:59:45.011Z,12.00
2022-10-30T10:02:31.428Z,12.60
2022-10-30T10:05:03.996Z,11.20
2022-10-30T10:07:36.691Z,11.30
2022-10-30T10:10:10.581Z,9.70
2022-10-30T10:12:42.109Z,11.30
2022-10-30T10:15:14.850Z,13.70
2022-10-30T10:17:45.934Z,15.60
2022-10-30T10:20:20.192Z,15.40
2022-10-30T10:22:50.102Z,9.80
2022-10-30T10:25:20.951Z,11.00
2022-10-30T10:28:02.640Z,13.00
2022-10-30T10:30:39.537Z,8.00
2022-10-30T10:33:40.548Z,9.30
2022-10-30T10:36:21.595Z,10.50
2022-10-30T10:39:01.675Z,8.20
2022-10-30T10:41:53.515Z,9.50
2022-10-30T10:44:31.317Z,7.10
2022-10-30T10:47:26.622Z,12.40
2022-10-30T10:50:07.888Z,10.10
2022-10-30T10:52:39.634Z,10.10
2022-10-30T10:55:14.920Z,11.40
2022-10-30T10:57:44.295Z,8.30
2022-10-30T11:00:17.815Z,11.10
2022-10-30T11:02:51.942Z,7.50
2022-10-30T11:07:52.100Z,11.10
2022-10-30T11:10:23.101Z,8.60
2022-10-30T11:12:51.686Z,8.10
2022-10-30T11:15:42.377Z,10.80
2022-10-30T11:18:11.462Z,6.20
2022-10-30T11:20:44.246Z,6.80
2022-10-30T11:23:40.963Z,12.60
2022-10-30T11:26:28.202Z,7.90
2022-10-30T11:28:59.612Z,7.80
2022-10-30T11:31:34.304Z,5.30
2022-10-30T11:36:45.628Z,3.60
2022-10-30T11:39:19.627Z,4.00
2022-10-30T11:41:54.709Z,4.10
2022-10-30T11:44:27.210Z,5.30
2022-10-30T11:46:56.556Z,3.10
2022-10-30T11:49:27.555Z,4.80
2022-10-30T11:51:56.084Z,6.80
2022-10-30T11:54:25.188Z,3.30
2022-10-30T11:56:54.582Z,4.80
2022-10-30T11:59:25.120Z,4.60
2022-10-30T12:02:01.918Z,5.00
2022-10-30T12:04:32.536Z,5.00
2022-10-30T12:07:19.799Z,5.60
2022-10-30T12:09:48.739Z,4.90
2022-10-30T12:12:23.584Z,3.40
2022-10-30T12:14:53.125Z,7.50
2022-10-30T12:17:22.575Z,5.20
2022-10-30T12:19:52.955Z,2.70
2022-10-30T12:22:32.339Z,2.50
2022-10-30T12:25:04.645Z,4.40
2022-10-30T12:27:37.063Z,3.50
2022-10-30T12:30:15.175Z,6.90
2022-10-30T12:32:49.104Z,2.50
2022-10-30T12:35:35.912Z,3.40
2022-10-30T12:38:07.467Z,3.70
2022-10-30T12:40:43.816Z,5.30
2022-10-30T12:43:18.717Z,2.40
2022-10-30T12:45:57.473Z,2.10
2022-10-30T12:48:31.407Z,2.90
2022-10-30T12:51:12.755Z,3.10
2022-10-30T12:53:49.984Z,3.60
2022-10-30T12:56:22.450Z,3.80
2022-10-30T12:58:54.308Z,4.70
2022-10-30T13:01:28.065Z,4.30
2022-10-30T13:06:29.329Z,4.60
2022-10-30T13:09:08.170Z,5.00
2022-10-30T13:11:41.248Z,5.50
2022-10-30T13:14:19.085Z,6.80
2022-10-30T13:16:50.639Z,5.70
2022-10-30T13:19:19.282Z,6.60
2022-10-30T13:21:56.421Z,5.60
2022-10-30T13:24:33.807Z,6.00
2022-10-30T13:27:05.447Z,5.40
2022-10-30T13:29:39.940Z,5.30
2022-10-30T13:32:34.123Z,5.80
2022-10-30T13:35:15.156Z,5.60
2022-10-30T13:37:49.214Z,6.10
2022-10-30T13:40:21.016Z,5.40
2022-10-30T13:42:59.139Z,5.30
2022-10-30T13:45:52.676Z,7.40
2022-10-30T13:48:30.409Z,4.20
2022-10-30T13:51:26.688Z,4.50
2022-10-30T13:54:03.189Z,5.70
2022-10-30T13:56:35.706Z,5.80
2022-10-30T13:59:12.244Z,5.70
2022-10-30T14:01:46.317Z,5.50
2022-10-30T14:04:19.670Z,6.20
2022-10-30T14:06:56.958Z,9.90
2022-10-30T14:09:33.091Z,9.20
2022-10-30T14:12:40.448Z,11.50
2022-10-30T14:15:17.456Z,10.50
2022-10-30T14:18:18.022Z,8.40
2022-10-30T14:20:47.444Z,9.50
2022-10-30T14:23:20.110Z,8.20
2022-10-30T14:26:18.745Z,7.50
2022-10-30T14:28:49.830Z,6.40
2022-10-30T14:31:20.666Z,5.60
2022-10-30T14:33:51.001Z,5.80
2022-10-30T14:36:25.576Z,8.50
2022-10-30T14:38:58.634Z,5.90
2022-10-30T14:41:45.105Z,5.00
2022-10-30T14:44:37.329Z,7.30
2022-10-30T14:47:29.040Z,4.80
2022-10-30T14:50:01.566Z,5.10
2022-10-30T14:52:36.526Z,5.50
2022-10-30T14:55:25.259Z,5.10
2022-10-30T14:58:21.508Z,5.10
2022-10-30T15:00:51.298Z,6.90
2022-10-30T15:03:42.682Z,5.10
2022-10-30T15:06:21.132Z,6.30
2022-10-30T15:09:04.339Z,5.30
2022-10-30T15:11:42.847Z,6.70
2022-10-30T15:14:21.695Z,6.70
2022-10-30T15:17:01.664Z,6.90
2022-10-30T15:19:31.221Z,6.60
2022-10-30T15:22:00.970Z,6.70
2022-10-30T15:24:32.511Z,6.50
2022-10-30T15:27:04.405Z,6.50
2022-10-30T15:29:37.735Z,6.60
2022-10-30T15:32:18.585Z,8.60
2022-10-30T15:34:55.343Z,6.70
2022-10-30T15:37:24.021Z,8.90
2022-10-30T15:40:10.246Z,11.70
2022-10-30T15:42:39.870Z,6.50
2022-10-30T15:45:15.519Z,6.50
2022-10-30T15:47:47.629Z,6.00
2022-10-30T15:50:19.403Z,6.40
2022-10-30T15:52:47.897Z,5.90
2022-10-30T15:55:18.365Z,6.80
2022-10-30T15:58:02.848Z,10.00
2022-10-30T16:00:39.196Z,7.60
2022-10-30T16:03:17.053Z,6.70
2022-10-30T16:05:45.667Z,7.10
2022-10-30T16:08:16.314Z,7.10
2022-10-30T16:10:48.747Z,6.40
2022-10-30T16:13:22.338Z,7.70
2022-10-30T16:15:51.798Z,7.10
2022-10-30T16:18:24.327Z,7.30
2022-10-30T16:20:54.550Z,6.30
2022-10-30T16:23:24.733Z,16.90
2022-10-30T16:25:59.135Z,8.30
2022-10-30T16:28:30.961Z,8.70
2022-10-30T16:31:03.755Z,8.30
2022-10-30T16:33:34.964Z,8.00
2022-10-30T16:36:04.854Z,10.30
2022-10-30T16:38:36.125Z,9.70
2022-10-30T16:41:07.539Z,9.10
2022-10-30T16:43:38.814Z,10.30
2022-10-30T16:46:32.246Z,10.00
2022-10-30T16:49:03.928Z,12.20
2022-10-30T16:51:32.957Z,10.90
2022-10-30T16:54:01.875Z,11.00
2022-10-30T16:56:36.817Z,9.60
2022-10-30T16:59:15.666Z,10.20
2022-10-30T17:01:44.463Z,9.50
2022-10-30T17:04:26.914Z,11.30
2022-10-30T17:07:24.036Z,8.90
2022-10-30T17:10:03.938Z,9.40
2022-10-30T17:12:35.785Z,11.50
2022-10-30T17:15:13.179Z,14.60
2022-10-30T17:17:45.579Z,13.10
2022-10-30T17:20:29.968Z,12.70
2022-10-30T17:23:30.860Z,13.20
2022-10-30T17:26:21.669Z,9.80
2022-10-30T17:28:50.716Z,10.40
2022-10-30T17:31:31.303Z,11.50
2022-10-30T17:34:17.176Z,10.70
2022-10-30T17:36:47.116Z,13.90
2022-10-30T17:39:15.851Z,11.50
2022-10-30T17:41:45.498Z,13.10
2022-10-30T17:44:18.602Z,16.30
2022-10-30T17:46:47.748Z,13.20
2022-10-30T17:49:24.171Z,12.90
2022-10-30T17:51:52.789Z,12.90
2022-10-30T17:54:21.618Z,14.50
2022-10-30T17:56:50.751Z,15.70
2022-10-30T17:59:19.546Z,13.50
2022-10-30T18:01:49.175Z,10.90
2022-10-30T18:04:20.749Z,17.00
2022-10-30T18:06:50.240Z,13.50
2022-10-30T18:09:19.169Z,11.20
2022-10-30T18:11:47.617Z,14.30
2022-10-30T18:14:15.996Z,15.40
2022-10-30T18:16:44.944Z,18.60
2022-10-30T18:19:13.327Z,16.10
2022-10-30T18:21:42.001Z,14.40
2022-10-30T18:24:13.543Z,11.10
2022-10-30T18:26:42.350Z,11.00
2022-10-30T18:29:11.707Z,14.70
2022-10-30T18:31:41.181Z,14.50
2022-10-30T18:34:15.853Z,13.20
2022-10-30T18:36:44.749Z,13.70
2022-10-30T18:39:13.448Z,11.30
2022-10-30T18:41:44.113Z,18.80
2022-10-30T18:44:15.317Z,26.60
2022-10-30T18:46:44.265Z,19.10
2022-10-30T18:49:13.298Z,17.30
2022-10-30T18:51:41.980Z,19.50
2022-10-30T18:54:14.952Z,14.20
2022-10-30T18:56:44.420Z,13.60
2022-10-30T18:59:12.790Z,14.10
2022-10-30T19:01:45.409Z,13.50
2022-10-30T19:04:19.285Z,13.50
2022-10-30T19:06:50.798Z,13.90
2022-10-30T19:09:19.992Z,15.50
2022-10-30T19:11:48.565Z,15.90
2022-10-30T19:14:17.465Z,16.10
2022-10-30T19:16:46.773Z,17.40
2022-10-30T19:19:15.588Z,18.50
2022-10-30T19:21:44.499Z,28.40
2022-10-30T19:24:17.331Z,16.40
2022-10-30T19:26:46.175Z,18.10
2022-10-30T19:29:14.943Z,14.80
2022-10-30T19:31:43.619Z,17.10
2022-10-30T19:34:12.359Z,17.90
2022-10-30T19:36:43.489Z,19.80
2022-10-30T19:39:13.790Z,15.40
2022-10-30T19:41:42.545Z,27.90
2022-10-30T19:44:11.102Z,16.00
2022-10-30T19:46:39.894Z,21.90
2022-10-30T19:49:17.553Z,17.90
2022-10-30T19:51:46.357Z,17.90
2022-10-30T19:54:16.411Z,16.30
2022-10-30T19:56:45.379Z,20.50
2022-10-30T19:59:15.131Z,23.30
2022-10-30T20:01:44.208Z,21.90
2022-10-30T20:04:13.171Z,21.30
2022-10-30T20:06:41.748Z,21.50
2022-10-30T20:09:11.760Z,21.40
2022-10-30T20:11:40.103Z,21.50
2022-10-30T20:14:08.893Z,24.40
2022-10-30T20:16:37.299Z,21.10
2022-10-30T20:19:25.064Z,19.20
2022-10-30T20:21:54.861Z,23.10
2022-10-30T20:24:23.839Z,20.30
2022-10-30T20:26:52.992Z,24.70
2022-10-30T20:29:21.977Z,19.70
2022-10-30T20:31:50.487Z,19.50
2022-10-30T20:34:18.918Z,19.70
2022-10-30T20:36:47.434Z,22.50
2022-10-30T20:39:16.085Z,24.70
2022-10-30T20:41:44.815Z,23.50
2022-10-30T20:44:13.563Z,18.40
2022-10-30T20:46:42.269Z,24.40
2022-10-30T20:49:17.153Z,21.10
2022-10-30T20:51:47.600Z,22.00
2022-10-30T20:54:16.804Z,21.00
2022-10-30T20:56:45.269Z,32.00
2022-10-30T20:59:14.733Z,29.30
2022-10-30T21:01:43.223Z,32.10
2022-10-30T21:04:11.870Z,53.90
2022-10-30T21:06:40.756Z,44.50
2022-10-30T21:09:09.228Z,52.30
2022-10-30T21:11:37.596Z,47.10
2022-10-30T21:14:06.389Z,57.60
2022-10-30T21:16:34.806Z,44.90
2022-10-30T21:19:03.615Z,48.20
2022-10-30T21:21:32.190Z,43.30
2022-10-30T21:24:00.686Z,45.20
2022-10-30T21:26:29.165Z,57.90
2022-10-30T21:28:58.311Z,55.40
2022-10-30T21:31:26.918Z,52.40
2022-10-30T21:33:55.353Z,50.70
2022-10-30T21:36:24.383Z,52.30
2022-10-30T21:38:53.094Z,55.40
2022-10-30T21:41:22.197Z,53.10
2022-10-30T21:43:52.634Z,56.80
2022-10-30T21:46:22.687Z,53.70
2022-10-30T21:48:51.626Z,48.50
2022-10-30T21:51:21.548Z,42.10
2022-10-30T21:53:50.364Z,47.80
2022-10-30T21:56:20.573Z,37.50
2022-10-30T21:58:50.034Z,39.60
2022-10-30T22:01:20.868Z,44.60
2022-10-30T22:03:49.714Z,45.60
2022-10-30T22:06:19.818Z,46.20
2022-10-30T22:08:49.644Z,44.80
2022-10-30T22:11:19.037Z,45.80
2022-10-30T22:13:47.511Z,47.70
2022-10-30T22:16:16.113Z,54.70
2022-10-30T22:18:44.595Z,49.20
2022-10-30T22:21:13.916Z,51.70
2022-10-30T22:23:47.147Z,55.40
2022-10-30T22:26:17.637Z,49.30
2022-10-30T22:28:51.701Z,49.30
2022-10-30T22:31:22.236Z,51.20
2022-10-30T22:33:51.134Z,49.30
2022-10-30T22:36:22.088Z,47.10
2022-10-30T22:38:56.564Z,45.20
2022-10-30T22:41:25.684Z,45.50
2022-10-30T22:43:55.022Z,51.10
2022-10-30T22:46:26.117Z,62.60
2022-10-30T22:48:55.171Z,74.70
2022-10-30T22:51:23.961Z,62.20
2022-10-30T22:53:57.852Z,59.30
2022-10-30T22:58:55.752Z,67.80
2022-10-30T23:01:26.476Z,65.90
2022-10-30T23:03:57.317Z,71.90
2022-10-30T23:06:26.601Z,76.20
2022-10-30T23:08:56.414Z,72.80
2022-10-30T23:11:25.790Z,72.70
2022-10-30T23:13:54.297Z,58.90
2022-10-30T23:16:23.995Z,59.20
2022-10-30T23:18:55.953Z,58.50
2022-10-30T23:21:27.813Z,61.50
2022-10-30T23:23:57.130Z,67.10
2022-10-30T23:26:28.513Z,63.60
2022-10-30T23:28:58.621Z,62.80
2022-10-30T23:31:29.464Z,60.90
2022-10-30T23:33:59.964Z,60.80
2022-10-30T23:36:30.038Z,61.30
2022-10-30T23:39:00.226Z,59.10
2022-10-30T23:41:30.488Z,61.20
2022-10-30T23:44:05.830Z,64.90
2022-10-30T23:46:35.162Z,61.30
2022-10-30T23:49:04.094Z,69.10
2022-10-30T23:51:35.265Z,72.20
2022-10-30T23:54:07.923Z,70.00
2022-10-30T23:56:36.574Z,75.70
2022-10-30T23:59:09.764Z,72.00
